createdAt,value
2018-06-04T00:00:24.169Z,983.40
2018-06-04T00:01:24.138Z,983.35
2018-06-04T00:02:24.128Z,983.36
2018-06-04T00:03:24.074Z,983.33
2018-06-04T00:04:24.030Z,983.30
2018-06-04T00:05:24.005Z,983.31
2018-06-04T00:06:23.973Z,983.33
2018-06-04T00:07:23.921Z,983.33
2018-06-04T00:08:23.906Z,983.28
2018-06-04T00:09:23.864Z,983.25
2018-06-04T00:10:23.831Z,983.20
2018-06-04T00:11:23.797Z,983.20
2018-06-04T00:12:23.759Z,983.15
2018-06-04T00:13:23.917Z,983.16
2018-06-04T00:14:23.686Z,983.12
2018-06-04T00:15:23.677Z,983.12
2018-06-04T00:16:23.620Z,983.13
2018-06-04T00:17:23.581Z,983.12
2018-06-04T00:18:23.551Z,983.12
2018-06-04T00:19:23.491Z,983.08
2018-06-04T00:20:23.483Z,983.09
2018-06-04T00:21:23.433Z,983.07
2018-06-04T00:22:23.408Z,983.06
2018-06-04T00:23:23.372Z,983.06
2018-06-04T00:24:23.318Z,983.04
2018-06-04T00:25:23.298Z,983.00
2018-06-04T00:26:23.257Z,983.03
2018-06-04T00:27:23.255Z,983.03
2018-06-04T00:28:23.207Z,983.05
2018-06-04T00:29:23.228Z,983.02
2018-06-04T00:30:23.117Z,983.02
2018-06-04T00:31:23.078Z,983.05
2018-06-04T00:32:23.094Z,983.05
2018-06-04T00:33:23.041Z,983.04
2018-06-04T00:34:22.988Z,983.08
2018-06-04T00:35:22.951Z,983.02
2018-06-04T00:36:23.397Z,983.04
2018-06-04T00:37:22.856Z,983.02
2018-06-04T00:38:22.857Z,983.00
2018-06-04T00:39:23.397Z,982.94
2018-06-04T00:40:22.794Z,982.99
2018-06-04T00:41:22.720Z,982.96
2018-06-04T00:42:22.708Z,982.90
2018-06-04T00:43:22.765Z,982.93
2018-06-04T00:44:22.614Z,982.94
2018-06-04T00:45:23.396Z,982.93
2018-06-04T00:46:22.589Z,982.94
2018-06-04T00:47:22.517Z,982.90
2018-06-04T00:48:22.480Z,982.90
2018-06-04T00:49:22.476Z,982.89
2018-06-04T00:50:22.427Z,982.89
2018-06-04T00:51:22.422Z,982.86
2018-06-04T00:52:22.379Z,982.87
2018-06-04T00:53:22.297Z,982.89
2018-06-04T00:54:22.275Z,982.89
2018-06-04T00:55:22.232Z,982.85
2018-06-04T00:56:22.203Z,982.87
2018-06-04T00:57:22.160Z,982.85
2018-06-04T00:58:22.121Z,982.80
2018-06-04T00:59:22.903Z,982.81
2018-06-04T01:00:22.048Z,982.79
2018-06-04T01:01:22.027Z,982.81
2018-06-04T01:02:21.997Z,982.77
2018-06-04T01:03:21.942Z,982.73
2018-06-04T01:04:21.942Z,982.78
2018-06-04T01:05:21.864Z,982.78
2018-06-04T01:06:21.826Z,982.76
2018-06-04T01:07:21.834Z,982.80
2018-06-04T01:08:21.768Z,982.75
2018-06-04T01:09:21.728Z,982.81
2018-06-04T01:10:21.737Z,982.79
2018-06-04T01:11:22.408Z,982.79
2018-06-04T01:12:21.618Z,982.78
2018-06-04T01:13:21.600Z,982.79
2018-06-04T01:14:21.570Z,982.81
2018-06-04T01:15:21.528Z,982.80
2018-06-04T01:16:21.476Z,982.81
2018-06-04T01:17:21.445Z,982.81
2018-06-04T01:18:21.406Z,982.80
2018-06-04T01:19:21.488Z,982.75
2018-06-04T01:20:21.383Z,982.79
2018-06-04T01:21:21.333Z,982.77
2018-06-04T01:22:21.337Z,982.75
2018-06-04T01:23:21.289Z,982.75
2018-06-04T01:24:21.264Z,982.72
2018-06-04T01:25:21.179Z,982.78
2018-06-04T01:26:21.149Z,982.77
2018-06-04T01:27:21.102Z,982.79
2018-06-04T01:28:21.057Z,982.75
2018-06-04T01:29:21.002Z,982.72
2018-06-04T01:30:20.976Z,982.74
2018-06-04T01:31:20.952Z,982.75
2018-06-04T01:32:20.924Z,982.76
2018-06-04T01:33:20.876Z,982.73
2018-06-04T01:34:20.863Z,982.74
2018-06-04T01:35:21.415Z,982.68
2018-06-04T01:36:20.754Z,982.75
2018-06-04T01:37:20.797Z,982.71
2018-06-04T01:38:20.718Z,982.69
2018-06-04T01:39:20.682Z,982.72
2018-06-04T01:40:20.653Z,982.71
2018-06-04T01:41:20.583Z,982.69
2018-06-04T01:42:21.410Z,982.69
2018-06-04T01:43:20.523Z,982.66
2018-06-04T01:44:20.489Z,982.69
2018-06-04T01:45:20.461Z,982.67
2018-06-04T01:46:20.447Z,982.66
2018-06-04T01:47:20.375Z,982.65
2018-06-04T01:48:20.362Z,982.64
2018-06-04T01:49:20.309Z,982.63
2018-06-04T01:50:20.269Z,982.65
2018-06-04T01:51:20.223Z,982.64
2018-06-04T01:52:20.204Z,982.63
2018-06-04T01:53:20.173Z,982.62
2018-06-04T01:54:20.111Z,982.67
2018-06-04T01:55:20.117Z,982.62
2018-06-04T01:56:20.074Z,982.66
2018-06-04T01:57:20.019Z,982.63
2018-06-04T01:58:19.981Z,982.60
2018-06-04T01:59:19.947Z,982.56
2018-06-04T02:00:19.931Z,982.61
2018-06-04T02:01:19.856Z,982.62
2018-06-04T02:02:19.846Z,982.60
2018-06-04T02:03:19.786Z,982.60
2018-06-04T02:04:19.798Z,982.61
2018-06-04T02:05:20.418Z,982.59
2018-06-04T02:06:19.708Z,982.58
2018-06-04T02:07:20.422Z,982.57
2018-06-04T02:08:19.623Z,982.54
2018-06-04T02:09:19.600Z,982.51
2018-06-04T02:10:19.546Z,982.55
2018-06-04T02:11:19.530Z,982.50
2018-06-04T02:12:19.466Z,982.50
2018-06-04T02:13:19.467Z,982.53
2018-06-04T02:14:19.432Z,982.51
2018-06-04T02:15:19.393Z,982.52
2018-06-04T02:16:19.332Z,982.53
2018-06-04T02:17:19.304Z,982.53
2018-06-04T02:18:19.281Z,982.55
2018-06-04T02:19:19.268Z,982.57
2018-06-04T02:20:19.923Z,982.57
2018-06-04T02:21:19.193Z,982.56
2018-06-04T02:22:19.109Z,982.54
2018-06-04T02:23:19.088Z,982.52
2018-06-04T02:24:19.084Z,982.52
2018-06-04T02:25:19.021Z,982.49
2018-06-04T02:26:19.013Z,982.47
2018-06-04T02:27:18.966Z,982.47
2018-06-04T02:28:18.891Z,982.45
2018-06-04T02:29:18.851Z,982.45
2018-06-04T02:30:18.858Z,982.42
2018-06-04T02:31:18.809Z,982.39
2018-06-04T02:32:18.752Z,982.40
2018-06-04T02:33:18.713Z,982.43
2018-06-04T02:34:18.715Z,982.41
2018-06-04T02:35:18.640Z,982.41
2018-06-04T02:36:18.629Z,982.44
2018-06-04T02:37:18.592Z,982.42
2018-06-04T02:38:18.556Z,982.41
2018-06-04T02:39:18.495Z,982.43
2018-06-04T02:40:18.542Z,982.41
2018-06-04T02:41:18.434Z,982.39
2018-06-04T02:42:18.434Z,982.42
2018-06-04T02:43:18.469Z,982.38
2018-06-04T02:44:18.330Z,982.43
2018-06-04T02:45:18.319Z,982.39
2018-06-04T02:46:18.255Z,982.37
2018-06-04T02:47:18.246Z,982.33
2018-06-04T02:48:18.202Z,982.38
2018-06-04T02:49:18.155Z,982.34
2018-06-04T02:50:18.164Z,982.32
2018-06-04T02:51:18.087Z,982.37
2018-06-04T02:52:18.039Z,982.38
2018-06-04T02:53:18.028Z,982.39
2018-06-04T02:54:17.984Z,982.37
2018-06-04T02:55:17.917Z,982.37
2018-06-04T02:56:17.929Z,982.36
2018-06-04T02:57:17.897Z,982.36
2018-06-04T02:58:17.829Z,982.37
2018-06-04T02:59:17.807Z,982.38
2018-06-04T03:00:18.444Z,982.36
2018-06-04T03:01:17.799Z,982.35
2018-06-04T03:02:18.441Z,982.33
2018-06-04T03:03:17.638Z,982.34
2018-06-04T03:04:17.604Z,982.35
2018-06-04T03:05:17.565Z,982.30
2018-06-04T03:06:17.545Z,982.30
2018-06-04T03:07:17.515Z,982.33
2018-06-04T03:08:17.478Z,982.33
2018-06-04T03:09:17.422Z,982.35
2018-06-04T03:10:17.417Z,982.33
2018-06-04T03:11:17.361Z,982.31
2018-06-04T03:12:17.315Z,982.29
2018-06-04T03:13:17.280Z,982.26
2018-06-04T03:14:17.259Z,982.29
2018-06-04T03:15:17.210Z,982.29
2018-06-04T03:16:17.190Z,982.29
2018-06-04T03:17:17.209Z,982.29
2018-06-04T03:18:17.115Z,982.31
2018-06-04T03:19:17.091Z,982.29
2018-06-04T03:20:17.042Z,982.32
2018-06-04T03:21:17.063Z,982.29
2018-06-04T03:22:16.958Z,982.28
2018-06-04T03:23:16.923Z,982.30
2018-06-04T03:24:16.892Z,982.32
2018-06-04T03:25:16.864Z,982.33
2018-06-04T03:26:16.822Z,982.30
2018-06-04T03:27:17.440Z,982.29
2018-06-04T03:28:16.840Z,982.21
2018-06-04T03:29:16.745Z,982.23
2018-06-04T03:30:16.698Z,982.23
2018-06-04T03:31:16.647Z,982.25
2018-06-04T03:32:16.621Z,982.22
2018-06-04T03:33:16.641Z,982.21
2018-06-04T03:34:16.552Z,982.20
2018-06-04T03:35:16.504Z,982.21
2018-06-04T03:36:16.480Z,982.24
2018-06-04T03:37:16.455Z,982.23
2018-06-04T03:38:16.447Z,982.22
2018-06-04T03:39:16.374Z,982.20
2018-06-04T03:40:16.332Z,982.23
2018-06-04T03:41:16.310Z,982.19
2018-06-04T03:42:16.262Z,982.18
2018-06-04T03:43:16.211Z,982.22
2018-06-04T03:44:18.478Z,982.23
2018-06-04T03:45:16.192Z,982.18
2018-06-04T03:47:09.605Z,982.25
2018-06-04T03:48:09.209Z,982.25
2018-06-04T03:50:02.494Z,982.29
2018-06-04T03:51:02.313Z,982.27
2018-06-04T03:52:55.670Z,982.29
2018-06-04T03:53:55.308Z,982.29
2018-06-04T03:55:48.425Z,982.32
2018-06-04T03:56:48.436Z,982.35
2018-06-04T03:58:41.609Z,982.30
2018-06-04T03:59:41.356Z,982.27
2018-06-04T04:01:34.693Z,982.30
2018-06-04T04:02:35.269Z,982.32
2018-06-04T04:03:34.338Z,982.30
2018-06-04T04:04:34.375Z,982.29
2018-06-04T04:05:34.306Z,982.31
2018-06-04T04:06:34.232Z,982.32
2018-06-04T04:07:34.228Z,982.29
2018-06-04T04:08:34.189Z,982.28
2018-06-04T04:09:34.142Z,982.31
2018-06-04T04:10:34.094Z,982.29
2018-06-04T04:11:34.267Z,982.33
2018-06-04T04:12:34.039Z,982.32
2018-06-04T04:13:33.987Z,982.29
2018-06-04T04:14:33.948Z,982.26
2018-06-04T04:15:33.935Z,982.28
2018-06-04T04:16:33.882Z,982.27
2018-06-04T04:17:33.866Z,982.30
2018-06-04T04:18:33.820Z,982.26
2018-06-04T04:19:33.818Z,982.30
2018-06-04T04:20:33.788Z,982.28
2018-06-04T04:21:33.725Z,982.32
2018-06-04T04:22:33.681Z,982.31
2018-06-04T04:23:33.674Z,982.33
2018-06-04T04:24:33.649Z,982.35
2018-06-04T04:25:33.615Z,982.36
2018-06-04T04:26:33.603Z,982.33
2018-06-04T04:27:33.547Z,982.34
2018-06-04T04:28:33.501Z,982.35
2018-06-04T04:29:33.461Z,982.32
2018-06-04T04:30:33.445Z,982.34
2018-06-04T04:31:33.386Z,982.33
2018-06-04T04:32:33.387Z,982.35
2018-06-04T04:33:33.366Z,982.39
2018-06-04T04:34:33.311Z,982.35
2018-06-04T04:35:33.309Z,982.44
2018-06-04T04:36:33.234Z,982.42
2018-06-04T04:37:33.266Z,982.43
2018-06-04T04:38:33.180Z,982.38
2018-06-04T04:39:33.185Z,982.41
2018-06-04T04:40:33.202Z,982.34
2018-06-04T04:41:33.097Z,982.37
2018-06-04T04:42:33.102Z,982.37
2018-06-04T04:43:33.073Z,982.35
2018-06-04T04:44:32.997Z,982.35
2018-06-04T04:45:32.965Z,982.40
2018-06-04T04:46:32.909Z,982.39
2018-06-04T04:47:32.918Z,982.39
2018-06-04T04:48:32.888Z,982.38
2018-06-04T04:49:32.816Z,982.39
2018-06-04T04:50:32.799Z,982.35
2018-06-04T04:51:32.759Z,982.36
2018-06-04T04:52:32.720Z,982.34
2018-06-04T04:53:32.737Z,982.35
2018-06-04T04:54:32.654Z,982.36
2018-06-04T04:55:32.653Z,982.37
2018-06-04T04:56:32.633Z,982.38
2018-06-04T04:57:32.598Z,982.42
2018-06-04T04:58:32.565Z,982.39
2018-06-04T04:59:32.565Z,982.39
2018-06-04T05:00:32.535Z,982.39
2018-06-04T05:01:32.469Z,982.39
2018-06-04T05:02:32.439Z,982.40
2018-06-04T05:03:32.389Z,982.40
2018-06-04T05:04:32.547Z,982.38
2018-06-04T05:05:32.338Z,982.38
2018-06-04T05:06:32.351Z,982.38
2018-06-04T05:07:32.265Z,982.37
2018-06-04T05:08:32.243Z,982.36
2018-06-04T05:09:32.200Z,982.38
2018-06-04T05:10:32.175Z,982.39
2018-06-04T05:11:32.139Z,982.38
2018-06-04T05:12:32.107Z,982.39
2018-06-04T05:13:32.071Z,982.38
2018-06-04T05:14:32.649Z,982.38
2018-06-04T05:15:32.027Z,982.39
2018-06-04T05:16:32.024Z,982.39
2018-06-04T05:17:31.978Z,982.37
2018-06-04T05:18:31.952Z,982.40
2018-06-04T05:19:31.936Z,982.36
2018-06-04T05:20:31.876Z,982.36
2018-06-04T05:21:31.828Z,982.38
2018-06-04T05:22:31.825Z,982.37
2018-06-04T05:23:31.764Z,982.39
2018-06-04T05:24:31.773Z,982.32
2018-06-04T05:25:31.704Z,982.36
2018-06-04T05:26:31.700Z,982.28
2018-06-04T05:27:31.638Z,982.32
2018-06-04T05:28:31.623Z,982.31
2018-06-04T05:29:31.603Z,982.34
2018-06-04T05:30:31.560Z,982.31
2018-06-04T05:31:31.573Z,982.29
2018-06-04T05:32:31.507Z,982.30
2018-06-04T05:33:31.492Z,982.32
2018-06-04T05:34:31.441Z,982.30
2018-06-04T05:35:31.402Z,982.33
2018-06-04T05:36:31.409Z,982.27
2018-06-04T05:37:31.371Z,982.27
2018-06-04T05:38:31.322Z,982.27
2018-06-04T05:39:31.296Z,982.28
2018-06-04T05:40:31.274Z,982.25
2018-06-04T05:41:31.275Z,982.27
2018-06-04T05:42:31.227Z,982.28
2018-06-04T05:43:31.184Z,982.30
2018-06-04T05:44:31.169Z,982.32
2018-06-04T05:45:31.118Z,982.32
2018-06-04T05:46:31.116Z,982.37
2018-06-04T05:47:31.080Z,982.30
2018-06-04T05:48:31.048Z,982.30
2018-06-04T05:49:31.042Z,982.31
2018-06-04T05:50:31.019Z,982.32
2018-06-04T05:51:30.957Z,982.26
2018-06-04T05:52:30.926Z,982.26
2018-06-04T05:53:30.921Z,982.29
2018-06-04T05:54:30.853Z,982.30
2018-06-04T05:55:30.824Z,982.30
2018-06-04T05:56:30.819Z,982.28
2018-06-04T05:57:30.761Z,982.25
2018-06-04T05:58:30.745Z,982.31
2018-06-04T05:59:30.705Z,982.29
2018-06-04T06:00:30.678Z,982.22
2018-06-04T06:01:30.702Z,982.27
2018-06-04T06:02:30.626Z,982.21
2018-06-04T06:03:30.594Z,982.23
2018-06-04T06:04:30.573Z,982.24
2018-06-04T06:05:30.557Z,982.21
2018-06-04T06:06:30.513Z,982.21
2018-06-04T06:07:30.470Z,982.22
2018-06-04T06:08:30.442Z,982.18
2018-06-04T06:09:30.439Z,982.19
2018-06-04T06:10:30.410Z,982.17
2018-06-04T06:11:30.385Z,982.17
2018-06-04T06:12:30.331Z,982.17
2018-06-04T06:13:30.295Z,982.14
2018-06-04T06:14:30.336Z,982.14
2018-06-04T06:15:30.247Z,982.07
2018-06-04T06:16:30.224Z,982.09
2018-06-04T06:17:30.197Z,982.06
2018-06-04T06:18:30.156Z,982.07
2018-06-04T06:19:30.170Z,982.07
2018-06-04T06:20:30.121Z,982.06
2018-06-04T06:21:30.189Z,982.06
2018-06-04T06:22:30.051Z,982.06
2018-06-04T06:23:30.056Z,982.05
2018-06-04T06:24:29.993Z,982.06
2018-06-04T06:25:30.021Z,982.06
2018-06-04T06:26:29.950Z,982.05
2018-06-04T06:27:29.895Z,982.04
2018-06-04T06:28:30.685Z,982.02
2018-06-04T06:29:29.860Z,982.00
2018-06-04T06:30:30.683Z,982.00
2018-06-04T06:31:29.781Z,981.99
2018-06-04T06:32:29.802Z,981.99
2018-06-04T06:33:29.729Z,981.96
2018-06-04T06:34:29.714Z,981.93
2018-06-04T06:35:29.719Z,981.94
2018-06-04T06:36:29.645Z,981.96
2018-06-04T06:37:29.611Z,981.93
2018-06-04T06:38:29.600Z,981.96
2018-06-04T06:39:29.556Z,981.94
2018-06-04T06:40:29.558Z,981.97
2018-06-04T06:41:29.534Z,981.96
2018-06-04T06:42:29.545Z,981.94
2018-06-04T06:43:29.479Z,981.93
2018-06-04T06:44:29.428Z,981.95
2018-06-04T06:45:29.453Z,981.92
2018-06-04T06:46:29.365Z,981.93
2018-06-04T06:47:29.363Z,981.93
2018-06-04T06:48:29.309Z,981.93
2018-06-04T06:49:29.301Z,981.90
2018-06-04T06:50:29.246Z,981.93
2018-06-04T06:51:29.237Z,981.92
2018-06-04T06:52:29.193Z,981.92
2018-06-04T06:53:29.188Z,981.91
2018-06-04T06:54:29.159Z,981.92
2018-06-04T06:55:29.261Z,981.88
2018-06-04T06:56:29.112Z,981.87
2018-06-04T06:57:29.063Z,981.84
2018-06-04T06:58:29.027Z,981.84
2018-06-04T06:59:29.032Z,981.84
2018-06-04T07:00:28.971Z,981.84
2018-06-04T07:01:28.958Z,981.80
2018-06-04T07:02:28.916Z,981.83
2018-06-04T07:03:28.916Z,981.84
2018-06-04T07:04:28.873Z,981.83
2018-06-04T07:05:28.853Z,981.84
2018-06-04T07:06:28.841Z,981.85
2018-06-04T07:07:28.821Z,981.84
2018-06-04T07:08:28.764Z,981.83
2018-06-04T07:09:28.760Z,981.81
2018-06-04T07:10:28.796Z,981.81
2018-06-04T07:11:28.709Z,981.81
2018-06-04T07:12:28.684Z,981.78
2018-06-04T07:13:28.653Z,981.80
2018-06-04T07:14:28.643Z,981.81
2018-06-04T07:15:28.601Z,981.80
2018-06-04T07:16:28.617Z,981.81
2018-06-04T07:17:28.590Z,981.81
2018-06-04T07:18:28.578Z,981.82
2018-06-04T07:19:28.595Z,981.82
2018-06-04T07:20:28.519Z,981.87
2018-06-04T07:21:28.507Z,981.86
2018-06-04T07:22:28.468Z,981.85
2018-06-04T07:23:28.427Z,981.77
2018-06-04T07:24:28.400Z,981.79
2018-06-04T07:25:28.389Z,981.74
2018-06-04T07:26:28.369Z,981.74
2018-06-04T07:27:28.353Z,981.79
2018-06-04T07:28:28.321Z,981.80
2018-06-04T07:29:28.315Z,981.76
2018-06-04T07:30:28.275Z,981.79
2018-06-04T07:31:28.784Z,981.78
2018-06-04T07:32:28.254Z,981.77
2018-06-04T07:33:28.222Z,981.76
2018-06-04T07:34:28.199Z,981.77
2018-06-04T07:35:28.176Z,981.70
2018-06-04T07:36:28.162Z,981.74
2018-06-04T07:37:28.186Z,981.79
2018-06-04T07:38:28.216Z,981.74
2018-06-04T07:39:28.140Z,981.76
2018-06-04T07:40:28.097Z,981.75
2018-06-04T07:41:28.075Z,981.74
2018-06-04T07:42:28.053Z,981.77
2018-06-04T07:43:28.040Z,981.74
2018-06-04T07:44:28.125Z,981.74
2018-06-04T07:45:28.090Z,981.70
2018-06-04T07:46:27.995Z,981.68
2018-06-04T07:47:27.968Z,981.70
2018-06-04T07:48:27.969Z,981.71
2018-06-04T07:49:27.946Z,981.68
2018-06-04T07:50:27.909Z,981.70
2018-06-04T07:51:27.910Z,981.70
2018-06-04T07:52:27.874Z,981.74
2018-06-04T07:53:27.929Z,981.74
2018-06-04T07:54:27.835Z,981.76
2018-06-04T07:55:27.881Z,981.73
2018-06-04T07:56:27.968Z,981.77
2018-06-04T07:57:27.779Z,981.71
2018-06-04T07:58:27.759Z,981.69
2018-06-04T07:59:27.735Z,981.69
2018-06-04T08:00:27.739Z,981.67
2018-06-04T08:01:27.708Z,981.70
2018-06-04T08:02:27.707Z,981.69
2018-06-04T08:03:27.682Z,981.71
2018-06-04T08:04:27.715Z,981.74
2018-06-04T08:05:27.622Z,981.72
2018-06-04T08:06:27.690Z,981.71
2018-06-04T08:07:27.608Z,981.76
2018-06-04T08:08:27.595Z,981.78
2018-06-04T08:09:27.568Z,981.78
2018-06-04T08:10:27.538Z,981.77
2018-06-04T08:11:27.548Z,981.78
2018-06-04T08:12:27.508Z,981.73
2018-06-04T08:13:27.530Z,981.75
2018-06-04T08:14:27.495Z,981.73
2018-06-04T08:15:27.460Z,981.73
2018-06-04T08:16:27.445Z,981.68
2018-06-04T08:17:27.443Z,981.71
2018-06-04T08:18:27.424Z,981.69
2018-06-04T08:19:27.416Z,981.67
2018-06-04T08:20:27.366Z,981.66
2018-06-04T08:21:27.366Z,981.67
2018-06-04T08:22:27.350Z,981.69
2018-06-04T08:23:27.296Z,981.67
2018-06-04T08:24:27.291Z,981.69
2018-06-04T08:25:27.257Z,981.67
2018-06-04T08:26:27.259Z,981.66
2018-06-04T08:27:27.246Z,981.70
2018-06-04T08:28:27.207Z,981.71
2018-06-04T08:29:27.200Z,981.73
2018-06-04T08:30:27.188Z,981.74
2018-06-04T08:31:27.158Z,981.71
2018-06-04T08:32:27.161Z,981.69
2018-06-04T08:33:27.106Z,981.69
2018-06-04T08:34:27.117Z,981.63
2018-06-04T08:35:27.088Z,981.67
2018-06-04T08:36:27.067Z,981.67
2018-06-04T08:37:27.064Z,981.63
2018-06-04T08:38:27.087Z,981.66
2018-06-04T08:39:27.027Z,981.65
2018-06-04T08:40:26.999Z,981.65
2018-06-04T08:41:26.984Z,981.54
2018-06-04T08:42:26.967Z,981.57
2018-06-04T08:43:26.943Z,981.58
2018-06-04T08:44:26.929Z,981.56
2018-06-04T08:45:26.885Z,981.53
2018-06-04T08:46:26.878Z,981.58
2018-06-04T08:47:26.861Z,981.53
2018-06-04T08:48:26.827Z,981.52
2018-06-04T08:49:26.803Z,981.49
2018-06-04T08:50:26.783Z,981.46
2018-06-04T08:51:26.763Z,981.45
2018-06-04T08:52:26.774Z,981.47
2018-06-04T08:53:26.728Z,981.45
2018-06-04T08:54:26.732Z,981.47
2018-06-04T08:55:26.684Z,981.43
2018-06-04T08:56:26.681Z,981.48
2018-06-04T08:57:26.648Z,981.43
2018-06-04T08:58:26.617Z,981.41
2018-06-04T08:59:26.614Z,981.46
2018-06-04T09:00:26.582Z,981.46
2018-06-04T09:01:26.584Z,981.42
2018-06-04T09:02:26.535Z,981.41
2018-06-04T09:03:26.558Z,981.44
2018-06-04T09:04:26.500Z,981.38
2018-06-04T09:05:26.512Z,981.40
2018-06-04T09:06:26.485Z,981.38
2018-06-04T09:07:26.446Z,981.40
2018-06-04T09:08:26.426Z,981.40
2018-06-04T09:09:26.391Z,981.40
2018-06-04T09:10:26.397Z,981.42
2018-06-04T09:11:26.363Z,981.43
2018-06-04T09:12:26.340Z,981.42
2018-06-04T09:13:26.309Z,981.40
2018-06-04T09:14:26.283Z,981.41
2018-06-04T09:15:26.272Z,981.35
2018-06-04T09:16:26.253Z,981.35
2018-06-04T09:17:26.210Z,981.28
2018-06-04T09:18:26.208Z,981.35
2018-06-04T09:19:26.180Z,981.31
2018-06-04T09:20:26.153Z,981.32
2018-06-04T09:21:26.135Z,981.30
2018-06-04T09:22:26.120Z,981.27
2018-06-04T09:23:26.103Z,981.28
2018-06-04T09:24:26.073Z,981.25
2018-06-04T09:25:26.053Z,981.24
2018-06-04T09:26:26.030Z,981.27
2018-06-04T09:27:25.994Z,981.28
2018-06-04T09:28:26.015Z,981.25
2018-06-04T09:29:25.949Z,981.26
2018-06-04T09:30:25.936Z,981.22
2018-06-04T09:31:25.927Z,981.24
2018-06-04T09:32:25.871Z,981.26
2018-06-04T09:33:25.881Z,981.26
2018-06-04T09:34:25.839Z,981.25
2018-06-04T09:35:25.809Z,981.28
2018-06-04T09:36:25.815Z,981.34
2018-06-04T09:37:25.776Z,981.31
2018-06-04T09:38:25.747Z,981.31
2018-06-04T09:39:25.748Z,981.32
2018-06-04T09:40:25.699Z,981.28
2018-06-04T09:41:25.677Z,981.31
2018-06-04T09:42:25.663Z,981.31
2018-06-04T09:43:25.656Z,981.30
2018-06-04T09:44:25.626Z,981.25
2018-06-04T09:45:25.593Z,981.28
2018-06-04T09:46:25.564Z,981.29
2018-06-04T09:47:25.606Z,981.22
2018-06-04T09:48:25.548Z,981.23
2018-06-04T09:49:25.521Z,981.23
2018-06-04T09:50:25.488Z,981.17
2018-06-04T09:51:25.476Z,981.20
2018-06-04T09:52:25.467Z,981.18
2018-06-04T09:53:25.429Z,981.22
2018-06-04T09:54:25.447Z,981.19
2018-06-04T09:55:25.420Z,981.19
2018-06-04T09:56:25.342Z,981.25
2018-06-04T09:57:25.352Z,981.22
2018-06-04T09:58:25.336Z,981.21
2018-06-04T09:59:25.324Z,981.23
2018-06-04T10:00:25.271Z,981.20
2018-06-04T10:01:25.322Z,981.17
2018-06-04T10:02:25.253Z,981.20
2018-06-04T10:03:25.215Z,981.17
2018-06-04T10:04:25.223Z,981.15
2018-06-04T10:05:25.171Z,981.17
2018-06-04T10:06:25.164Z,981.10
2018-06-04T10:07:25.167Z,981.15
2018-06-04T10:08:25.203Z,981.14
2018-06-04T10:09:25.133Z,981.15
2018-06-04T10:10:25.104Z,981.17
2018-06-04T10:11:25.081Z,981.14
2018-06-04T10:12:25.042Z,981.15
2018-06-04T10:13:25.037Z,981.14
2018-06-04T10:14:25.001Z,981.07
2018-06-04T10:15:25.004Z,981.15
2018-06-04T10:16:24.972Z,981.11
2018-06-04T10:17:24.949Z,981.10
2018-06-04T10:18:24.932Z,981.09
2018-06-04T10:19:24.924Z,981.07
2018-06-04T10:20:24.914Z,981.06
2018-06-04T10:21:24.901Z,981.03
2018-06-04T10:22:24.894Z,981.03
2018-06-04T10:23:24.898Z,981.02
2018-06-04T10:24:24.911Z,981.03
2018-06-04T10:25:24.894Z,981.02
2018-06-04T10:26:25.282Z,981.01
2018-06-04T10:27:24.776Z,981.00
2018-06-04T10:28:24.757Z,980.97
2018-06-04T10:29:24.758Z,980.98
2018-06-04T10:30:24.719Z,980.99
2018-06-04T10:31:24.697Z,980.97
2018-06-04T10:32:24.692Z,980.97
2018-06-04T10:33:24.691Z,980.96
2018-06-04T10:34:24.633Z,980.96
2018-06-04T10:35:24.629Z,980.96
2018-06-04T10:36:24.581Z,980.92
2018-06-04T10:37:24.574Z,980.92
2018-06-04T10:38:24.546Z,980.98
2018-06-04T10:39:24.519Z,981.00
2018-06-04T10:40:24.549Z,980.96
2018-06-04T10:41:24.490Z,980.97
2018-06-04T10:42:24.490Z,980.96
2018-06-04T10:43:24.464Z,980.99
2018-06-04T10:44:24.445Z,980.99
2018-06-04T10:45:24.418Z,981.00
2018-06-04T10:46:24.389Z,980.97
2018-06-04T10:47:24.392Z,980.93
2018-06-04T10:48:24.361Z,980.91
2018-06-04T10:49:24.330Z,980.90
2018-06-04T10:50:24.321Z,980.88
2018-06-04T10:51:24.286Z,980.92
2018-06-04T10:52:24.267Z,980.88
2018-06-04T10:53:24.257Z,980.87
2018-06-04T10:54:24.261Z,980.87
2018-06-04T10:55:24.239Z,980.86
2018-06-04T10:56:24.209Z,980.84
2018-06-04T10:57:24.187Z,980.86
2018-06-04T10:58:24.158Z,980.87
2018-06-04T10:59:24.116Z,980.86
2018-06-04T11:00:24.120Z,980.83
2018-06-04T11:01:24.076Z,980.76
2018-06-04T11:02:24.080Z,980.83
2018-06-04T11:03:24.056Z,980.82
2018-06-04T11:04:24.046Z,980.83
2018-06-04T11:05:24.086Z,980.80
2018-06-04T11:06:24.018Z,980.80
2018-06-04T11:07:23.963Z,980.79
2018-06-04T11:08:23.956Z,980.75
2018-06-04T11:09:23.935Z,980.76
2018-06-04T11:10:23.887Z,980.70
2018-06-04T11:11:23.885Z,980.72
2018-06-04T11:12:23.885Z,980.71
2018-06-04T11:13:23.849Z,980.67
2018-06-04T11:14:23.823Z,980.67
2018-06-04T11:15:23.821Z,980.63
2018-06-04T11:16:23.806Z,980.68
2018-06-04T11:17:23.796Z,980.63
2018-06-04T11:18:23.747Z,980.66
2018-06-04T11:19:23.746Z,980.64
2018-06-04T11:20:23.739Z,980.64
2018-06-04T11:21:23.713Z,980.64
2018-06-04T11:22:23.662Z,980.66
2018-06-04T11:23:23.674Z,980.64
2018-06-04T11:24:23.731Z,980.59
2018-06-04T11:25:23.739Z,980.61
2018-06-04T11:26:23.654Z,980.63
2018-06-04T11:27:23.587Z,980.62
2018-06-04T11:28:23.556Z,980.62
2018-06-04T11:29:23.609Z,980.58
2018-06-04T11:30:23.562Z,980.60
2018-06-04T11:31:23.485Z,980.61
2018-06-04T11:32:23.492Z,980.59
2018-06-04T11:33:23.457Z,980.59
2018-06-04T11:34:23.437Z,980.57
2018-06-04T11:35:23.429Z,980.55
2018-06-04T11:36:23.419Z,980.60
2018-06-04T11:37:23.388Z,980.57
2018-06-04T11:38:23.358Z,980.59
2018-06-04T11:39:23.389Z,980.55
2018-06-04T11:40:23.323Z,980.57
2018-06-04T11:41:23.344Z,980.58
2018-06-04T11:42:23.277Z,980.54
2018-06-04T11:43:23.262Z,980.56
2018-06-04T11:44:23.243Z,980.52
2018-06-04T11:45:23.228Z,980.52
2018-06-04T11:46:23.204Z,980.51
2018-06-04T11:47:23.164Z,980.48
2018-06-04T11:48:23.187Z,980.46
2018-06-04T11:49:23.174Z,980.41
2018-06-04T11:50:23.198Z,980.43
2018-06-04T11:51:23.121Z,980.39
2018-06-04T11:52:23.060Z,980.36
2018-06-04T11:53:23.040Z,980.34
2018-06-04T11:54:23.995Z,980.35
2018-06-04T11:55:22.999Z,980.31
2018-06-04T11:56:24.019Z,980.31
2018-06-04T11:57:22.976Z,980.36
2018-06-04T11:58:23.004Z,980.35
2018-06-04T11:59:22.923Z,980.31
2018-06-04T12:00:22.904Z,980.32
2018-06-04T12:01:22.884Z,980.30
2018-06-04T12:02:22.876Z,980.34
2018-06-04T12:03:22.817Z,980.32
2018-06-04T12:04:22.828Z,980.32
2018-06-04T12:05:22.825Z,980.26
2018-06-04T12:06:22.815Z,980.30
2018-06-04T12:07:22.743Z,980.36
2018-06-04T12:08:22.736Z,980.33
2018-06-04T12:09:22.709Z,980.38
2018-06-04T12:10:22.691Z,980.36
2018-06-04T12:11:22.675Z,980.35
2018-06-04T12:12:22.643Z,980.34
2018-06-04T12:13:22.636Z,980.36
2018-06-04T12:14:22.595Z,980.33
2018-06-04T12:15:22.593Z,980.29
2018-06-04T12:16:22.561Z,980.27
2018-06-04T12:17:22.559Z,980.28
2018-06-04T12:18:22.532Z,980.29
2018-06-04T12:19:22.504Z,980.22
2018-06-04T12:20:22.501Z,980.24
2018-06-04T12:21:22.473Z,980.24
2018-06-04T12:22:22.451Z,980.23
2018-06-04T12:23:22.447Z,980.20
2018-06-04T12:24:22.387Z,980.20
2018-06-04T12:25:22.399Z,980.21
2018-06-04T12:26:22.380Z,980.25
2018-06-04T12:27:22.326Z,980.21
2018-06-04T12:28:22.317Z,980.22
2018-06-04T12:29:22.314Z,980.24
2018-06-04T12:30:22.261Z,980.22
2018-06-04T12:31:22.276Z,980.23
2018-06-04T12:32:22.239Z,980.19
2018-06-04T12:33:22.238Z,980.15